sensor_id;sensor_type;location;lat;lon;timestamp;temperature;humidity
28614;DHT22;15806;53.548;9.964;2023-03-30T00:00:37;12.00;99.90
28614;DHT22;15806;53.548;9.964;2023-03-30T00:02:19;11.90;99.90
28614;DHT22;15806;53.548;9.964;2023-03-30T00:03:59;12.00;99.90
28614;DHT22;15806;53.548;9.964;2023-03-30T00:05:40;12.00;99.90
28614;DHT22;15806;53.548;9.964;2023-03-30T00:07:20;12.00;99.90
28614;DHT22;15806;53.548;9.964;2023-03-30T00:09:01;12.00;99.90
28614;DHT22;15806;53.548;9.964;2023-03-30T00:10:41;12.00;99.90
28614;DHT22;15806;53.548;9.964;2023-03-30T00:12:22;12.00;99.90
28614;DHT22;15806;53.548;9.964;2023-03-30T00:14:02;12.10;99.90
28614;DHT22;15806;53.548;9.964;2023-03-30T00:15:43;12.10;99.90
28614;DHT22;15806;53.548;9.964;2023-03-30T00:17:23;12.10;99.90
28614;DHT22;15806;53.548;9.964;2023-03-30T00:19:04;12.20;99.90
28614;DHT22;15806;53.548;9.964;2023-03-30T00:20:47;12.20;99.90
28614;DHT22;15806;53.548;9.964;2023-03-30T00:22:28;12.20;99.90
28614;DHT22;15806;53.548;9.964;2023-03-30T00:24:08;12.10;99.90
28614;DHT22;15806;53.548;9.964;2023-03-30T00:25:49;12.10;99.90
28614;DHT22;15806;53.548;9.964;2023-03-30T00:27:29;12.10;99.90
28614;DHT22;15806;53.548;9.964;2023-03-30T00:29:10;12.10;99.90
28614;DHT22;15806;53.548;9.964;2023-03-30T00:30:51;12.10;99.90
28614;DHT22;15806;53.548;9.964;2023-03-30T00:32:32;12.10;99.90
28614;DHT22;15806;53.548;9.964;2023-03-30T00:34:12;12.10;99.90
28614;DHT22;15806;53.548;9.964;2023-03-30T00:35:54;12.20;99.90
28614;DHT22;15806;53.548;9.964;2023-03-30T00:37:36;12.20;99.90
28614;DHT22;15806;53.548;9.964;2023-03-30T00:39:16;12.10;99.90
28614;DHT22;15806;53.548;9.964;2023-03-30T00:40:58;12.10;99.90
28614;DHT22;15806;53.548;9.964;2023-03-30T00:42:39;12.20;99.90
28614;DHT22;15806;53.548;9.964;2023-03-30T00:46:38;12.20;99.90
28614;DHT22;15806;53.548;9.964;2023-03-30T00:48:34;12.10;99.90
28614;DHT22;15806;53.548;9.964;2023-03-30T00:50:17;12.10;99.90
28614;DHT22;15806;53.548;9.964;2023-03-30T00:51:59;12.10;99.90
28614;DHT22;15806;53.548;9.964;2023-03-30T00:53:45;12.10;99.90
28614;DHT22;15806;53.548;9.964;2023-03-30T00:55:30;12.20;99.90
28614;DHT22;15806;53.548;9.964;2023-03-30T00:57:11;12.10;99.90
28614;DHT22;15806;53.548;9.964;2023-03-30T00:58:53;12.10;99.90
28614;DHT22;15806;53.548;9.964;2023-03-30T01:00:34;12.10;99.90
28614;DHT22;15806;53.548;9.964;2023-03-30T01:02:14;12.20;99.90
28614;DHT22;15806;53.548;9.964;2023-03-30T01:03:59;12.00;99.90
28614;DHT22;15806;53.548;9.964;2023-03-30T01:05:41;12.10;99.90
28614;DHT22;15806;53.548;9.964;2023-03-30T01:07:23;12.10;99.90
28614;DHT22;15806;53.548;9.964;2023-03-30T01:09:03;12.10;99.90
28614;DHT22;15806;53.548;9.964;2023-03-30T01:10:44;12.10;99.90
28614;DHT22;15806;53.548;9.964;2023-03-30T01:12:24;12.10;99.90
28614;DHT22;15806;53.548;9.964;2023-03-30T01:14:07;12.10;99.90
28614;DHT22;15806;53.548;9.964;2023-03-30T01:18:09;12.10;99.90
28614;DHT22;15806;53.548;9.964;2023-03-30T01:20:36;12.10;99.90
28614;DHT22;15806;53.548;9.964;2023-03-30T01:24:52;12.20;99.90
28614;DHT22;15806;53.548;9.964;2023-03-30T01:26:53;12.10;99.90
28614;DHT22;15806;53.548;9.964;2023-03-30T01:34:59;12.10;99.90
28614;DHT22;15806;53.548;9.964;2023-03-30T01:40:59;12.20;99.90
28614;DHT22;15806;53.548;9.964;2023-03-30T01:46:54;12.20;99.90
28614;DHT22;15806;53.548;9.964;2023-03-30T01:48:48;12.20;99.90
28614;DHT22;15806;53.548;9.964;2023-03-30T01:50:39;12.30;99.90
28614;DHT22;15806;53.548;9.964;2023-03-30T01:52:41;12.30;99.90
28614;DHT22;15806;53.548;9.964;2023-03-30T01:54:34;12.30;99.90
28614;DHT22;15806;53.548;9.964;2023-03-30T01:56:17;12.40;99.90
28614;DHT22;15806;53.548;9.964;2023-03-30T02:00:18;12.40;99.90
28614;DHT22;15806;53.548;9.964;2023-03-30T02:02:02;12.40;99.90
28614;DHT22;15806;53.548;9.964;2023-03-30T02:03:49;12.40;99.90
28614;DHT22;15806;53.548;9.964;2023-03-30T02:05:31;12.50;99.90
28614;DHT22;15806;53.548;9.964;2023-03-30T02:07:15;12.50;99.90
28614;DHT22;15806;53.548;9.964;2023-03-30T02:08:58;12.60;99.90
28614;DHT22;15806;53.548;9.964;2023-03-30T02:10:40;12.50;99.90
28614;DHT22;15806;53.548;9.964;2023-03-30T02:12:22;12.50;99.90
28614;DHT22;15806;53.548;9.964;2023-03-30T02:14:05;12.50;99.90
28614;DHT22;15806;53.548;9.964;2023-03-30T02:15:50;12.50;99.90
28614;DHT22;15806;53.548;9.964;2023-03-30T02:17:32;12.50;99.90
28614;DHT22;15806;53.548;9.964;2023-03-30T02:19:14;12.60;99.90
28614;DHT22;15806;53.548;9.964;2023-03-30T02:20:57;12.70;99.90
28614;DHT22;15806;53.548;9.964;2023-03-30T02:22:38;12.70;99.90
28614;DHT22;15806;53.548;9.964;2023-03-30T02:24:23;12.80;99.90
28614;DHT22;15806;53.548;9.964;2023-03-30T02:26:05;12.80;99.90
28614;DHT22;15806;53.548;9.964;2023-03-30T02:27:45;12.90;99.90
28614;DHT22;15806;53.548;9.964;2023-03-30T02:29:29;12.90;99.90
28614;DHT22;15806;53.548;9.964;2023-03-30T02:31:39;12.80;99.90
28614;DHT22;15806;53.548;9.964;2023-03-30T02:36:31;13.00;99.90
28614;DHT22;15806;53.548;9.964;2023-03-30T02:52:38;13.00;99.90
28614;DHT22;15806;53.548;9.964;2023-03-30T02:54:46;13.10;99.90
28614;DHT22;15806;53.548;9.964;2023-03-30T02:56:57;13.00;99.90
28614;DHT22;15806;53.548;9.964;2023-03-30T02:59:10;13.10;99.90
28614;DHT22;15806;53.548;9.964;2023-03-30T03:03:13;13.20;99.90
28614;DHT22;15806;53.548;9.964;2023-03-30T03:04:54;13.20;99.90
28614;DHT22;15806;53.548;9.964;2023-03-30T03:06:35;13.20;99.90
28614;DHT22;15806;53.548;9.964;2023-03-30T03:08:17;13.20;99.90
28614;DHT22;15806;53.548;9.964;2023-03-30T03:10:01;13.20;99.90
28614;DHT22;15806;53.548;9.964;2023-03-30T03:11:41;13.20;99.90
28614;DHT22;15806;53.548;9.964;2023-03-30T03:13:22;13.30;99.90
28614;DHT22;15806;53.548;9.964;2023-03-30T03:15:03;13.30;99.90
28614;DHT22;15806;53.548;9.964;2023-03-30T03:16:43;13.20;99.90
28614;DHT22;15806;53.548;9.964;2023-03-30T03:18:24;13.20;99.90
28614;DHT22;15806;53.548;9.964;2023-03-30T03:20:05;13.20;99.90
28614;DHT22;15806;53.548;9.964;2023-03-30T03:21:46;13.20;99.90
28614;DHT22;15806;53.548;9.964;2023-03-30T03:23:26;13.20;99.90
28614;DHT22;15806;53.548;9.964;2023-03-30T03:25:07;13.20;99.90
28614;DHT22;15806;53.548;9.964;2023-03-30T03:26:48;13.10;99.90
28614;DHT22;15806;53.548;9.964;2023-03-30T03:28:29;13.20;99.90
28614;DHT22;15806;53.548;9.964;2023-03-30T03:30:10;13.10;99.90
28614;DHT22;15806;53.548;9.964;2023-03-30T03:31:50;13.20;99.90
28614;DHT22;15806;53.548;9.964;2023-03-30T03:33:32;13.20;99.90
28614;DHT22;15806;53.548;9.964;2023-03-30T03:35:12;13.20;99.90
28614;DHT22;15806;53.548;9.964;2023-03-30T03:36:53;13.20;99.90
28614;DHT22;15806;53.548;9.964;2023-03-30T03:38:33;13.20;99.90
28614;DHT22;15806;53.548;9.964;2023-03-30T03:40:14;13.20;99.90
28614;DHT22;15806;53.548;9.964;2023-03-30T03:41:54;13.20;99.90
28614;DHT22;15806;53.548;9.964;2023-03-30T03:43:35;13.20;99.90
28614;DHT22;15806;53.548;9.964;2023-03-30T03:45:15;13.10;99.90
28614;DHT22;15806;53.548;9.964;2023-03-30T03:46:56;13.10;99.90
28614;DHT22;15806;53.548;9.964;2023-03-30T03:48:38;13.10;99.90
28614;DHT22;15806;53.548;9.964;2023-03-30T03:50:18;13.10;99.90
28614;DHT22;15806;53.548;9.964;2023-03-30T03:51:59;13.00;99.90
28614;DHT22;15806;53.548;9.964;2023-03-30T03:53:39;13.00;99.90
28614;DHT22;15806;53.548;9.964;2023-03-30T03:55:20;13.00;99.90
28614;DHT22;15806;53.548;9.964;2023-03-30T03:57:00;13.00;99.90
28614;DHT22;15806;53.548;9.964;2023-03-30T03:58:41;13.00;99.90
28614;DHT22;15806;53.548;9.964;2023-03-30T04:00:21;13.00;99.90
28614;DHT22;15806;53.548;9.964;2023-03-30T04:02:02;13.00;99.90
28614;DHT22;15806;53.548;9.964;2023-03-30T04:03:43;13.00;99.90
28614;DHT22;15806;53.548;9.964;2023-03-30T04:05:24;13.00;99.90
28614;DHT22;15806;53.548;9.964;2023-03-30T04:07:04;12.90;99.90
28614;DHT22;15806;53.548;9.964;2023-03-30T04:08:45;12.90;99.90
28614;DHT22;15806;53.548;9.964;2023-03-30T04:10:26;12.90;99.90
28614;DHT22;15806;53.548;9.964;2023-03-30T04:12:06;12.80;99.90
28614;DHT22;15806;53.548;9.964;2023-03-30T04:13:47;12.80;99.90
28614;DHT22;15806;53.548;9.964;2023-03-30T04:15:27;12.80;99.90
28614;DHT22;15806;53.548;9.964;2023-03-30T04:17:08;12.70;99.90
28614;DHT22;15806;53.548;9.964;2023-03-30T04:18:48;12.70;99.90
28614;DHT22;15806;53.548;9.964;2023-03-30T04:20:29;12.80;99.90
28614;DHT22;15806;53.548;9.964;2023-03-30T04:22:10;12.70;99.90
28614;DHT22;15806;53.548;9.964;2023-03-30T04:23:50;12.70;99.90
28614;DHT22;15806;53.548;9.964;2023-03-30T04:25:31;12.60;99.90
28614;DHT22;15806;53.548;9.964;2023-03-30T04:27:11;12.60;99.90
28614;DHT22;15806;53.548;9.964;2023-03-30T04:28:52;12.60;99.90
28614;DHT22;15806;53.548;9.964;2023-03-30T04:30:32;12.60;99.90
28614;DHT22;15806;53.548;9.964;2023-03-30T04:32:13;12.50;99.90
28614;DHT22;15806;53.548;9.964;2023-03-30T04:33:53;12.50;99.90
28614;DHT22;15806;53.548;9.964;2023-03-30T04:35:34;12.50;99.90
28614;DHT22;15806;53.548;9.964;2023-03-30T04:37:14;12.50;99.90
28614;DHT22;15806;53.548;9.964;2023-03-30T04:38:55;12.40;99.90
28614;DHT22;15806;53.548;9.964;2023-03-30T04:40:38;12.40;99.90
28614;DHT22;15806;53.548;9.964;2023-03-30T04:42:19;12.40;99.90
28614;DHT22;15806;53.548;9.964;2023-03-30T04:44:01;12.40;99.90
28614;DHT22;15806;53.548;9.964;2023-03-30T04:45:42;12.40;99.90
28614;DHT22;15806;53.548;9.964;2023-03-30T04:47:27;12.40;99.90
28614;DHT22;15806;53.548;9.964;2023-03-30T04:49:08;12.40;99.90
28614;DHT22;15806;53.548;9.964;2023-03-30T04:50:50;12.30;99.90
28614;DHT22;15806;53.548;9.964;2023-03-30T04:52:30;12.30;99.90
28614;DHT22;15806;53.548;9.964;2023-03-30T04:54:11;12.40;99.90
28614;DHT22;15806;53.548;9.964;2023-03-30T04:55:51;12.30;99.90
28614;DHT22;15806;53.548;9.964;2023-03-30T04:57:32;12.30;99.90
28614;DHT22;15806;53.548;9.964;2023-03-30T04:59:12;12.20;99.90
28614;DHT22;15806;53.548;9.964;2023-03-30T05:00:54;12.30;99.90
28614;DHT22;15806;53.548;9.964;2023-03-30T05:02:35;12.20;99.90
28614;DHT22;15806;53.548;9.964;2023-03-30T05:04:17;12.20;99.90
28614;DHT22;15806;53.548;9.964;2023-03-30T05:05:58;12.20;99.90
28614;DHT22;15806;53.548;9.964;2023-03-30T05:07:45;12.10;99.90
28614;DHT22;15806;53.548;9.964;2023-03-30T05:09:31;12.10;99.90
28614;DHT22;15806;53.548;9.964;2023-03-30T05:11:12;12.10;99.90
28614;DHT22;15806;53.548;9.964;2023-03-30T05:12:53;12.00;99.90
28614;DHT22;15806;53.548;9.964;2023-03-30T05:14:34;12.10;99.90
28614;DHT22;15806;53.548;9.964;2023-03-30T05:16:15;12.10;99.90
28614;DHT22;15806;53.548;9.964;2023-03-30T05:17:55;12.10;99.90
28614;DHT22;15806;53.548;9.964;2023-03-30T05:19:36;12.10;99.90
28614;DHT22;15806;53.548;9.964;2023-03-30T05:21:16;12.00;99.90
28614;DHT22;15806;53.548;9.964;2023-03-30T05:22:57;12.00;99.90
28614;DHT22;15806;53.548;9.964;2023-03-30T05:24:37;11.90;99.90
28614;DHT22;15806;53.548;9.964;2023-03-30T05:26:18;12.10;99.90
28614;DHT22;15806;53.548;9.964;2023-03-30T05:27:58;12.10;99.90
28614;DHT22;15806;53.548;9.964;2023-03-30T05:29:39;12.10;99.90
28614;DHT22;15806;53.548;9.964;2023-03-30T05:31:20;12.00;99.90
28614;DHT22;15806;53.548;9.964;2023-03-30T05:33:00;12.00;99.90
28614;DHT22;15806;53.548;9.964;2023-03-30T05:34:41;12.10;99.90
28614;DHT22;15806;53.548;9.964;2023-03-30T05:36:22;12.00;99.90
28614;DHT22;15806;53.548;9.964;2023-03-30T05:38:02;12.10;99.90
28614;DHT22;15806;53.548;9.964;2023-03-30T05:39:43;12.10;99.90
28614;DHT22;15806;53.548;9.964;2023-03-30T05:41:24;12.00;99.90
28614;DHT22;15806;53.548;9.964;2023-03-30T05:43:04;12.00;99.90
28614;DHT22;15806;53.548;9.964;2023-03-30T05:44:45;12.00;99.90
28614;DHT22;15806;53.548;9.964;2023-03-30T05:46:25;12.00;99.90
28614;DHT22;15806;53.548;9.964;2023-03-30T05:48:06;12.00;99.90
28614;DHT22;15806;53.548;9.964;2023-03-30T05:49:47;11.80;99.90
28614;DHT22;15806;53.548;9.964;2023-03-30T05:51:27;11.80;99.90
28614;DHT22;15806;53.548;9.964;2023-03-30T05:53:08;11.70;99.90
28614;DHT22;15806;53.548;9.964;2023-03-30T05:54:48;11.80;99.90
28614;DHT22;15806;53.548;9.964;2023-03-30T05:56:29;11.70;99.90
28614;DHT22;15806;53.548;9.964;2023-03-30T05:58:09;11.90;99.90
28614;DHT22;15806;53.548;9.964;2023-03-30T05:59:50;11.80;99.90
28614;DHT22;15806;53.548;9.964;2023-03-30T06:01:30;11.80;99.90
28614;DHT22;15806;53.548;9.964;2023-03-30T06:03:11;11.90;99.90
28614;DHT22;15806;53.548;9.964;2023-03-30T06:04:51;12.00;99.90
28614;DHT22;15806;53.548;9.964;2023-03-30T06:06:32;12.00;99.90
28614;DHT22;15806;53.548;9.964;2023-03-30T06:08:13;12.00;99.90
28614;DHT22;15806;53.548;9.964;2023-03-30T06:09:53;12.00;99.90
28614;DHT22;15806;53.548;9.964;2023-03-30T06:11:34;12.10;99.90
28614;DHT22;15806;53.548;9.964;2023-03-30T06:13:14;12.20;99.90
28614;DHT22;15806;53.548;9.964;2023-03-30T06:14:55;12.20;99.90
28614;DHT22;15806;53.548;9.964;2023-03-30T06:16:35;12.10;99.90
28614;DHT22;15806;53.548;9.964;2023-03-30T06:18:16;12.20;99.90
28614;DHT22;15806;53.548;9.964;2023-03-30T06:19:57;12.20;99.90
28614;DHT22;15806;53.548;9.964;2023-03-30T06:21:37;12.40;99.90
28614;DHT22;15806;53.548;9.964;2023-03-30T06:23:18;12.40;99.90
28614;DHT22;15806;53.548;9.964;2023-03-30T06:24:58;12.40;99.90
28614;DHT22;15806;53.548;9.964;2023-03-30T06:26:39;12.40;99.90
28614;DHT22;15806;53.548;9.964;2023-03-30T06:28:20;12.40;99.90
28614;DHT22;15806;53.548;9.964;2023-03-30T06:30:01;12.40;99.90
28614;DHT22;15806;53.548;9.964;2023-03-30T06:31:42;12.40;99.90
28614;DHT22;15806;53.548;9.964;2023-03-30T06:33:22;12.50;99.90
28614;DHT22;15806;53.548;9.964;2023-03-30T06:35:04;12.60;99.90
28614;DHT22;15806;53.548;9.964;2023-03-30T06:36:45;12.60;99.90
28614;DHT22;15806;53.548;9.964;2023-03-30T06:38:26;12.60;99.90
28614;DHT22;15806;53.548;9.964;2023-03-30T06:40:07;12.70;99.90
28614;DHT22;15806;53.548;9.964;2023-03-30T06:41:48;12.70;99.90
28614;DHT22;15806;53.548;9.964;2023-03-30T06:43:28;12.80;99.90
28614;DHT22;15806;53.548;9.964;2023-03-30T06:45:10;12.70;99.90
28614;DHT22;15806;53.548;9.964;2023-03-30T06:46:50;12.70;99.90
28614;DHT22;15806;53.548;9.964;2023-03-30T06:48:31;12.60;99.90
28614;DHT22;15806;53.548;9.964;2023-03-30T06:50:11;12.70;99.90
28614;DHT22;15806;53.548;9.964;2023-03-30T06:51:52;12.60;99.90
28614;DHT22;15806;53.548;9.964;2023-03-30T06:53:32;12.70;99.90
28614;DHT22;15806;53.548;9.964;2023-03-30T06:55:13;12.60;99.90
28614;DHT22;15806;53.548;9.964;2023-03-30T06:56:54;12.50;99.90
28614;DHT22;15806;53.548;9.964;2023-03-30T06:58:34;12.50;99.90
28614;DHT22;15806;53.548;9.964;2023-03-30T07:00:15;12.40;99.90
28614;DHT22;15806;53.548;9.964;2023-03-30T07:01:56;12.50;99.90
28614;DHT22;15806;53.548;9.964;2023-03-30T07:03:36;12.60;99.90
28614;DHT22;15806;53.548;9.964;2023-03-30T07:05:17;12.60;99.90
28614;DHT22;15806;53.548;9.964;2023-03-30T07:06:57;12.50;99.90
28614;DHT22;15806;53.548;9.964;2023-03-30T07:08:38;12.50;99.90
28614;DHT22;15806;53.548;9.964;2023-03-30T07:10:19;12.50;99.90
28614;DHT22;15806;53.548;9.964;2023-03-30T07:12:00;12.50;99.90
28614;DHT22;15806;53.548;9.964;2023-03-30T07:13:41;12.50;99.90
28614;DHT22;15806;53.548;9.964;2023-03-30T07:15:21;12.60;99.90
28614;DHT22;15806;53.548;9.964;2023-03-30T07:17:02;12.50;99.90
28614;DHT22;15806;53.548;9.964;2023-03-30T07:18:42;12.50;99.90
28614;DHT22;15806;53.548;9.964;2023-03-30T07:20:23;12.50;99.90
28614;DHT22;15806;53.548;9.964;2023-03-30T07:22:03;12.50;99.90
28614;DHT22;15806;53.548;9.964;2023-03-30T07:23:44;12.50;99.90
28614;DHT22;15806;53.548;9.964;2023-03-30T07:25:25;12.50;99.90
28614;DHT22;15806;53.548;9.964;2023-03-30T07:27:05;12.50;99.90
28614;DHT22;15806;53.548;9.964;2023-03-30T07:28:46;12.60;99.90
28614;DHT22;15806;53.548;9.964;2023-03-30T07:30:26;12.60;99.90
28614;DHT22;15806;53.548;9.964;2023-03-30T07:32:07;12.60;99.90
28614;DHT22;15806;53.548;9.964;2023-03-30T07:33:48;12.60;99.90
28614;DHT22;15806;53.548;9.964;2023-03-30T07:35:29;12.60;99.90
28614;DHT22;15806;53.548;9.964;2023-03-30T07:37:09;12.60;99.90
28614;DHT22;15806;53.548;9.964;2023-03-30T07:38:50;12.60;99.90
28614;DHT22;15806;53.548;9.964;2023-03-30T07:40:30;12.60;99.90
28614;DHT22;15806;53.548;9.964;2023-03-30T07:42:11;12.60;99.90
28614;DHT22;15806;53.548;9.964;2023-03-30T07:43:51;12.60;99.90
28614;DHT22;15806;53.548;9.964;2023-03-30T07:45:32;12.50;99.90
28614;DHT22;15806;53.548;9.964;2023-03-30T07:47:13;12.50;99.90
28614;DHT22;15806;53.548;9.964;2023-03-30T07:48:53;12.40;99.90
28614;DHT22;15806;53.548;9.964;2023-03-30T07:50:34;12.40;99.90
28614;DHT22;15806;53.548;9.964;2023-03-30T07:52:15;12.40;99.90
28614;DHT22;15806;53.548;9.964;2023-03-30T07:53:55;12.40;99.90
28614;DHT22;15806;53.548;9.964;2023-03-30T07:55:36;12.40;99.90
28614;DHT22;15806;53.548;9.964;2023-03-30T07:57:16;12.40;99.90
28614;DHT22;15806;53.548;9.964;2023-03-30T07:58:57;12.40;99.90
28614;DHT22;15806;53.548;9.964;2023-03-30T08:00:37;12.40;99.90
28614;DHT22;15806;53.548;9.964;2023-03-30T08:02:18;12.40;99.90
28614;DHT22;15806;53.548;9.964;2023-03-30T08:03:59;12.40;99.90
28614;DHT22;15806;53.548;9.964;2023-03-30T08:05:40;12.40;99.90
28614;DHT22;15806;53.548;9.964;2023-03-30T08:07:21;12.50;99.90
28614;DHT22;15806;53.548;9.964;2023-03-30T08:09:01;12.50;99.90
28614;DHT22;15806;53.548;9.964;2023-03-30T08:10:43;12.50;99.90
28614;DHT22;15806;53.548;9.964;2023-03-30T08:12:24;12.60;99.90
28614;DHT22;15806;53.548;9.964;2023-03-30T08:14:04;12.60;99.90
28614;DHT22;15806;53.548;9.964;2023-03-30T08:15:45;12.60;99.90
28614;DHT22;15806;53.548;9.964;2023-03-30T08:17:26;12.60;99.90
28614;DHT22;15806;53.548;9.964;2023-03-30T08:19:07;12.50;99.90
28614;DHT22;15806;53.548;9.964;2023-03-30T08:20:50;12.70;99.90
28614;DHT22;15806;53.548;9.964;2023-03-30T08:22:30;12.70;99.90
28614;DHT22;15806;53.548;9.964;2023-03-30T08:24:11;12.80;99.90
28614;DHT22;15806;53.548;9.964;2023-03-30T08:25:55;12.90;99.90
28614;DHT22;15806;53.548;9.964;2023-03-30T08:27:36;12.90;99.90
28614;DHT22;15806;53.548;9.964;2023-03-30T08:29:16;13.00;99.90
28614;DHT22;15806;53.548;9.964;2023-03-30T08:31:07;13.10;99.90
28614;DHT22;15806;53.548;9.964;2023-03-30T08:32:47;13.20;99.90
28614;DHT22;15806;53.548;9.964;2023-03-30T08:34:28;13.10;99.90
28614;DHT22;15806;53.548;9.964;2023-03-30T08:36:09;12.90;99.90
28614;DHT22;15806;53.548;9.964;2023-03-30T08:37:50;12.90;99.90
28614;DHT22;15806;53.548;9.964;2023-03-30T08:39:30;12.80;99.90
28614;DHT22;15806;53.548;9.964;2023-03-30T08:45:10;12.90;99.90
28614;DHT22;15806;53.548;9.964;2023-03-30T08:46:52;13.00;99.90
28614;DHT22;15806;53.548;9.964;2023-03-30T08:48:35;13.00;99.90
28614;DHT22;15806;53.548;9.964;2023-03-30T08:50:35;13.10;99.90
28614;DHT22;15806;53.548;9.964;2023-03-30T08:52:22;13.10;99.90
28614;DHT22;15806;53.548;9.964;2023-03-30T08:54:05;13.20;99.90
28614;DHT22;15806;53.548;9.964;2023-03-30T08:55:50;13.20;99.90
28614;DHT22;15806;53.548;9.964;2023-03-30T08:57:44;13.20;99.90
28614;DHT22;15806;53.548;9.964;2023-03-30T08:59:41;13.10;99.90
28614;DHT22;15806;53.548;9.964;2023-03-30T09:01:37;13.10;99.90
28614;DHT22;15806;53.548;9.964;2023-03-30T09:03:35;13.20;99.90
28614;DHT22;15806;53.548;9.964;2023-03-30T09:05:27;13.40;99.90
28614;DHT22;15806;53.548;9.964;2023-03-30T09:08:21;13.60;99.90
28614;DHT22;15806;53.548;9.964;2023-03-30T09:09:46;13.70;99.90
28614;DHT22;15806;53.548;9.964;2023-03-30T09:11:34;13.60;99.90
28614;DHT22;15806;53.548;9.964;2023-03-30T09:13:19;13.50;99.90
28614;DHT22;15806;53.548;9.964;2023-03-30T09:15:26;13.60;99.90
28614;DHT22;15806;53.548;9.964;2023-03-30T09:17:30;13.80;99.90
28614;DHT22;15806;53.548;9.964;2023-03-30T09:19:20;14.00;99.90
28614;DHT22;15806;53.548;9.964;2023-03-30T09:21:04;13.90;99.90
28614;DHT22;15806;53.548;9.964;2023-03-30T09:22:45;14.10;99.90
28614;DHT22;15806;53.548;9.964;2023-03-30T09:24:26;14.10;99.90
28614;DHT22;15806;53.548;9.964;2023-03-30T09:28:26;13.90;99.90
28614;DHT22;15806;53.548;9.964;2023-03-30T09:30:20;13.90;99.90
28614;DHT22;15806;53.548;9.964;2023-03-30T09:32:13;13.90;99.90
28614;DHT22;15806;53.548;9.964;2023-03-30T09:34:03;13.90;99.90
28614;DHT22;15806;53.548;9.964;2023-03-30T09:35:58;13.80;99.90
28614;DHT22;15806;53.548;9.964;2023-03-30T09:37:42;13.90;99.90
28614;DHT22;15806;53.548;9.964;2023-03-30T09:39:25;13.90;99.90
28614;DHT22;15806;53.548;9.964;2023-03-30T09:41:17;13.90;99.90
28614;DHT22;15806;53.548;9.964;2023-03-30T09:43:22;13.90;99.90
28614;DHT22;15806;53.548;9.964;2023-03-30T09:45:24;13.90;99.90
28614;DHT22;15806;53.548;9.964;2023-03-30T09:47:24;14.00;99.90
28614;DHT22;15806;53.548;9.964;2023-03-30T09:49:13;14.00;99.90
28614;DHT22;15806;53.548;9.964;2023-03-30T09:50:54;14.00;99.90
28614;DHT22;15806;53.548;9.964;2023-03-30T09:52:38;14.10;99.90
28614;DHT22;15806;53.548;9.964;2023-03-30T09:54:20;14.10;99.90
28614;DHT22;15806;53.548;9.964;2023-03-30T09:56:08;14.30;99.90
28614;DHT22;15806;53.548;9.964;2023-03-30T09:57:49;14.40;99.90
28614;DHT22;15806;53.548;9.964;2023-03-30T09:59:33;14.60;99.90
28614;DHT22;15806;53.548;9.964;2023-03-30T10:01:18;14.70;99.90
28614;DHT22;15806;53.548;9.964;2023-03-30T10:03:01;14.70;99.90
28614;DHT22;15806;53.548;9.964;2023-03-30T10:06:36;14.70;99.90
28614;DHT22;15806;53.548;9.964;2023-03-30T10:08:20;14.90;99.90
28614;DHT22;15806;53.548;9.964;2023-03-30T10:12:05;14.80;99.90
28614;DHT22;15806;53.548;9.964;2023-03-30T10:13:48;14.90;99.90
28614;DHT22;15806;53.548;9.964;2023-03-30T10:15:29;15.00;99.90
28614;DHT22;15806;53.548;9.964;2023-03-30T10:17:21;15.10;99.90
28614;DHT22;15806;53.548;9.964;2023-03-30T10:19:06;15.00;99.90
28614;DHT22;15806;53.548;9.964;2023-03-30T10:21:05;14.90;99.90
28614;DHT22;15806;53.548;9.964;2023-03-30T10:23:00;14.90;99.90
28614;DHT22;15806;53.548;9.964;2023-03-30T10:24:51;14.90;99.90
28614;DHT22;15806;53.548;9.964;2023-03-30T10:26:35;14.90;99.90
28614;DHT22;15806;53.548;9.964;2023-03-30T10:28:24;14.90;99.90
28614;DHT22;15806;53.548;9.964;2023-03-30T10:30:09;14.90;99.90
28614;DHT22;15806;53.548;9.964;2023-03-30T10:32:07;15.10;99.90
28614;DHT22;15806;53.548;9.964;2023-03-30T10:33:49;15.10;99.90
28614;DHT22;15806;53.548;9.964;2023-03-30T10:35:37;14.90;99.90
28614;DHT22;15806;53.548;9.964;2023-03-30T10:37:24;14.90;99.90
28614;DHT22;15806;53.548;9.964;2023-03-30T10:39:28;14.90;99.90
28614;DHT22;15806;53.548;9.964;2023-03-30T10:41:12;14.90;99.90
28614;DHT22;15806;53.548;9.964;2023-03-30T10:42:56;14.80;99.90
28614;DHT22;15806;53.548;9.964;2023-03-30T10:44:58;14.80;99.90
28614;DHT22;15806;53.548;9.964;2023-03-30T10:46:39;14.90;99.90
28614;DHT22;15806;53.548;9.964;2023-03-30T10:48:51;15.00;99.90
28614;DHT22;15806;53.548;9.964;2023-03-30T10:50:42;15.00;99.90
28614;DHT22;15806;53.548;9.964;2023-03-30T10:54:41;15.10;1.00
28614;DHT22;15806;53.548;9.964;2023-03-30T10:56:52;15.00;99.90
28614;DHT22;15806;53.548;9.964;2023-03-30T11:03:05;14.80;99.90
28614;DHT22;15806;53.548;9.964;2023-03-30T11:06:40;14.80;99.90
28614;DHT22;15806;53.548;9.964;2023-03-30T11:08:25;14.90;1.00
28614;DHT22;15806;53.548;9.964;2023-03-30T11:10:13;14.80;1.00
28614;DHT22;15806;53.548;9.964;2023-03-30T11:11:59;14.80;1.00
28614;DHT22;15806;53.548;9.964;2023-03-30T11:13:43;14.80;99.80
28614;DHT22;15806;53.548;9.964;2023-03-30T11:16:36;14.70;99.90
28614;DHT22;15806;53.548;9.964;2023-03-30T11:19:55;14.90;99.90
28614;DHT22;15806;53.548;9.964;2023-03-30T11:26:28;15.40;1.00
28614;DHT22;15806;53.548;9.964;2023-03-30T11:28:14;15.50;99.90
28614;DHT22;15806;53.548;9.964;2023-03-30T11:32:20;15.90;8.50
28614;DHT22;15806;53.548;9.964;2023-03-30T11:34:46;16.00;1.00
28614;DHT22;15806;53.548;9.964;2023-03-30T11:36:29;16.30;1.00
28614;DHT22;15806;53.548;9.964;2023-03-30T11:38:38;16.20;99.90
28614;DHT22;15806;53.548;9.964;2023-03-30T11:40:25;15.70;99.90
28614;DHT22;15806;53.548;9.964;2023-03-30T11:42:17;15.50;99.90
28614;DHT22;15806;53.548;9.964;2023-03-30T11:43:59;15.60;99.90
28614;DHT22;15806;53.548;9.964;2023-03-30T11:46:45;15.60;1.00
28614;DHT22;15806;53.548;9.964;2023-03-30T11:48:25;15.80;1.00
28614;DHT22;15806;53.548;9.964;2023-03-30T11:52:58;15.80;1.00
28614;DHT22;15806;53.548;9.964;2023-03-30T11:56:42;16.40;99.90
28614;DHT22;15806;53.548;9.964;2023-03-30T11:58:32;15.90;99.90
28614;DHT22;15806;53.548;9.964;2023-03-30T12:00:47;15.50;1.00
28614;DHT22;15806;53.548;9.964;2023-03-30T12:04:19;15.10;99.90
28614;DHT22;15806;53.548;9.964;2023-03-30T12:08:39;15.10;1.00
28614;DHT22;15806;53.548;9.964;2023-03-30T12:10:38;15.10;1.00
28614;DHT22;15806;53.548;9.964;2023-03-30T12:12:37;15.00;99.90
28614;DHT22;15806;53.548;9.964;2023-03-30T12:16:09;14.80;1.00
28614;DHT22;15806;53.548;9.964;2023-03-30T12:17:57;14.70;77.10
28614;DHT22;15806;53.548;9.964;2023-03-30T12:19:44;14.60;1.00
28614;DHT22;15806;53.548;9.964;2023-03-30T12:21:32;14.40;1.00
28614;DHT22;15806;53.548;9.964;2023-03-30T12:27:09;13.20;99.90